createdAt,value
2022-08-09T00:01:52.814Z,8.30
2022-08-09T00:04:24.965Z,8.75
2022-08-09T00:09:37.087Z,9.80
2022-08-09T00:12:05.941Z,9.18
2022-08-09T00:14:38.299Z,9.13
2022-08-09T00:17:07.584Z,8.93
2022-08-09T00:19:36.399Z,8.30
2022-08-09T00:22:05.593Z,9.27
2022-08-09T00:24:34.333Z,9.50
2022-08-09T00:27:03.076Z,9.15
2022-08-09T00:29:39.529Z,10.52
2022-08-09T00:32:26.713Z,8.38
2022-08-09T00:34:56.606Z,9.68
2022-08-09T00:37:27.327Z,9.57
2022-08-09T00:40:13.837Z,9.27
2022-08-09T00:44:14.504Z,9.35
2022-08-09T00:45:35.867Z,8.85
2022-08-09T00:48:06.022Z,10.60
2022-08-09T00:50:37.882Z,9.27
2022-08-09T00:53:10.540Z,9.82
2022-08-09T00:56:04.669Z,9.18
2022-08-09T00:58:31.787Z,9.68
2022-08-09T01:01:00.050Z,9.35
2022-08-09T01:03:46.229Z,9.55
2022-08-09T01:06:19.942Z,9.40
2022-08-09T01:08:57.027Z,9.00
2022-08-09T01:11:53.308Z,9.27
2022-08-09T01:14:33.002Z,9.45
2022-08-09T01:17:34.132Z,9.73
2022-08-09T01:20:25.449Z,10.02
2022-08-09T01:23:12.277Z,9.05
2022-08-09T01:26:05.498Z,9.73
2022-08-09T01:28:38.384Z,9.05
2022-08-09T01:31:12.131Z,10.38
2022-08-09T01:34:04.854Z,9.90
2022-08-09T01:36:40.675Z,10.38
2022-08-09T01:39:10.296Z,9.20
2022-08-09T01:41:53.730Z,9.82
2022-08-09T01:44:29.537Z,9.40
2022-08-09T01:47:01.369Z,9.80
2022-08-09T01:49:39.071Z,10.73
2022-08-09T01:52:14.508Z,9.20
2022-08-09T01:54:48.535Z,9.85
2022-08-09T01:57:29.499Z,10.07
2022-08-09T02:00:35.819Z,9.98
2022-08-09T02:03:00.219Z,9.70
2022-08-09T02:05:37.626Z,10.43
2022-08-09T02:08:39.946Z,9.90
2022-08-09T02:11:03.286Z,10.50
2022-08-09T02:14:09.370Z,9.90
2022-08-09T02:16:59.633Z,9.63
2022-08-09T02:19:38.656Z,9.57
2022-08-09T02:22:31.785Z,9.27
2022-08-09T02:25:10.524Z,10.25
2022-08-09T02:28:00.644Z,9.95
2022-08-09T02:30:59.139Z,10.18
2022-08-09T02:33:37.673Z,10.48
2022-08-09T02:36:39.701Z,9.70
2022-08-09T02:39:33.928Z,10.88
2022-08-09T02:42:13.573Z,11.10
2022-08-09T02:44:53.018Z,12.30
2022-08-09T02:47:24.378Z,10.18
2022-08-09T02:50:01.869Z,9.85
2022-08-09T02:52:45.367Z,10.45
2022-08-09T02:55:20.685Z,9.95
2022-08-09T02:58:00.001Z,10.23
2022-08-09T03:00:58.025Z,10.30
2022-08-09T03:03:59.597Z,9.95
2022-08-09T03:06:18.975Z,10.75
2022-08-09T03:08:52.420Z,9.63
2022-08-09T03:12:04.739Z,9.93
2022-08-09T03:14:12.908Z,10.27
2022-08-09T03:16:47.428Z,10.68
2022-08-09T03:19:52.713Z,10.65
2022-08-09T03:22:12.222Z,10.18
2022-08-09T03:25:06.492Z,9.07
2022-08-09T03:27:45.953Z,9.95
2022-08-09T03:30:29.759Z,9.43
2022-08-09T03:33:12.708Z,10.23
2022-08-09T03:36:13.805Z,8.90
2022-08-09T03:38:43.132Z,10.18
2022-08-09T03:41:15.367Z,10.65
2022-08-09T03:44:03.169Z,9.52
2022-08-09T03:46:35.839Z,10.02
2022-08-09T03:49:07.865Z,9.63
2022-08-09T03:51:58.601Z,9.70
2022-08-09T03:54:35.114Z,9.93
2022-08-09T03:57:18.321Z,9.68
2022-08-09T03:59:54.374Z,9.55
2022-08-09T04:02:30.272Z,9.68
2022-08-09T04:05:06.362Z,8.55
2022-08-09T04:07:52.476Z,9.25
2022-08-09T04:10:29.117Z,9.65
2022-08-09T04:13:04.484Z,8.85
2022-08-09T04:16:18.814Z,9.55
2022-08-09T04:18:22.087Z,9.32
2022-08-09T04:20:51.776Z,9.30
2022-08-09T04:23:25.651Z,9.40
2022-08-09T04:25:55.832Z,9.35
2022-08-09T04:28:34.145Z,8.93
2022-08-09T04:31:08.093Z,8.40
2022-08-09T04:33:53.082Z,9.38
2022-08-09T04:36:31.127Z,9.40
2022-08-09T04:39:02.482Z,9.80
2022-08-09T04:41:33.786Z,8.50
2022-08-09T04:44:14.445Z,8.73
2022-08-09T04:46:57.700Z,9.50
2022-08-09T04:49:53.792Z,9.45
2022-08-09T04:52:27.508Z,9.13
2022-08-09T04:55:02.480Z,9.38
2022-08-09T04:57:58.938Z,8.50
2022-08-09T05:00:23.754Z,8.60
2022-08-09T05:02:52.812Z,9.55
2022-08-09T05:05:32.024Z,8.88
2022-08-09T05:08:14.828Z,8.60
2022-08-09T05:10:44.431Z,9.00
2022-08-09T05:13:14.411Z,8.95
2022-08-09T05:15:47.906Z,8.70
2022-08-09T05:18:39.103Z,8.57
2022-08-09T05:21:13.479Z,8.35
2022-08-09T05:24:00.322Z,8.48
2022-08-09T05:26:37.065Z,8.07
2022-08-09T05:29:21.624Z,8.63
2022-08-09T05:31:56.761Z,7.97
2022-08-09T05:34:33.314Z,8.05
2022-08-09T05:37:06.223Z,9.05
2022-08-09T05:39:43.188Z,9.07
2022-08-09T05:42:21.019Z,8.70
2022-08-09T05:45:02.220Z,8.32
2022-08-09T05:47:33.225Z,7.25
2022-08-09T05:50:31.139Z,8.00
2022-08-09T05:52:53.502Z,7.00
2022-08-09T05:55:24.122Z,7.47
2022-08-09T05:57:56.493Z,6.70
2022-08-09T06:00:28.952Z,7.60
2022-08-09T06:03:00.427Z,7.05
2022-08-09T06:05:57.100Z,6.80
2022-08-09T06:08:24.583Z,7.35
2022-08-09T06:10:56.146Z,6.65
2022-08-09T06:13:28.268Z,7.03
2022-08-09T06:15:56.691Z,6.78
2022-08-09T06:18:25.887Z,7.30
2022-08-09T06:20:58.471Z,7.00
2022-08-09T06:23:55.610Z,7.05
2022-08-09T06:26:21.177Z,8.00
2022-08-09T06:29:00.611Z,6.95
2022-08-09T06:31:39.680Z,6.50
2022-08-09T06:34:25.970Z,6.38
2022-08-09T06:36:59.430Z,6.43
2022-08-09T06:39:49.320Z,6.68
2022-08-09T06:42:24.389Z,5.68
2022-08-09T06:44:54.537Z,6.40
2022-08-09T06:47:24.030Z,5.75
2022-08-09T06:50:13.570Z,6.05
2022-08-09T06:52:47.297Z,5.85
2022-08-09T06:55:22.325Z,5.70
2022-08-09T06:58:02.676Z,5.82
2022-08-09T07:00:50.245Z,5.78
2022-08-09T07:03:28.378Z,6.22
2022-08-09T07:06:03.709Z,5.38
2022-08-09T07:08:37.056Z,5.32
2022-08-09T07:11:06.936Z,5.50
2022-08-09T07:13:45.433Z,5.47
2022-08-09T07:16:41.998Z,5.13
2022-08-09T07:19:23.087Z,5.13
2022-08-09T07:21:57.767Z,5.30
2022-08-09T07:24:40.313Z,5.40
2022-08-09T07:27:34.246Z,5.22
2022-08-09T07:30:01.117Z,4.60
2022-08-09T07:32:34.210Z,4.88
2022-08-09T07:35:10.473Z,4.57
2022-08-09T07:37:46.159Z,4.47
2022-08-09T07:40:20.570Z,4.40
2022-08-09T07:42:57.932Z,4.25
2022-08-09T07:45:38.114Z,4.68
2022-08-09T07:48:25.481Z,5.30
2022-08-09T07:51:03.076Z,5.40
2022-08-09T07:54:04.956Z,4.93
2022-08-09T07:56:38.820Z,4.82
2022-08-09T07:59:21.179Z,4.97
2022-08-09T08:01:56.209Z,4.72
2022-08-09T08:04:31.383Z,4.55
2022-08-09T08:07:15.598Z,5.43
2022-08-09T08:09:55.096Z,4.38
2022-08-09T08:12:42.525Z,4.18
2022-08-09T08:15:16.458Z,4.47
2022-08-09T08:17:55.128Z,4.45
2022-08-09T08:20:32.349Z,4.00
2022-08-09T08:23:16.069Z,3.92
2022-08-09T08:25:50.100Z,3.80
2022-08-09T08:28:31.953Z,4.03
2022-08-09T08:31:14.060Z,4.30
2022-08-09T08:33:52.490Z,4.15
2022-08-09T08:36:29.109Z,3.58
2022-08-09T08:39:00.569Z,3.83
2022-08-09T08:41:51.097Z,3.58
2022-08-09T08:44:27.010Z,3.75
2022-08-09T08:47:05.252Z,3.42
2022-08-09T08:49:48.483Z,3.75
2022-08-09T08:55:23.465Z,3.30
2022-08-09T08:57:56.767Z,3.55
2022-08-09T09:00:34.376Z,3.28
2022-08-09T09:03:12.070Z,3.60
2022-08-09T09:06:00.116Z,3.70
2022-08-09T09:08:40.499Z,3.58
2022-08-09T09:11:17.822Z,3.45
2022-08-09T09:13:55.384Z,3.67
2022-08-09T09:16:34.270Z,3.70
2022-08-09T09:22:05.063Z,3.42
2022-08-09T09:24:39.686Z,4.13
2022-08-09T09:28:04.300Z,3.60
2022-08-09T09:30:26.219Z,3.67
2022-08-09T09:33:15.366Z,4.07
2022-08-09T09:36:01.401Z,3.83
2022-08-09T09:38:52.933Z,3.45
2022-08-09T09:41:25.038Z,3.55
2022-08-09T09:44:10.307Z,3.33
2022-08-09T09:46:51.715Z,3.95
2022-08-09T09:49:32.289Z,3.65
2022-08-09T09:52:33.378Z,3.78
2022-08-09T09:55:16.719Z,3.65
2022-08-09T09:58:17.318Z,3.85
2022-08-09T10:00:54.045Z,4.32
2022-08-09T10:03:44.494Z,4.35
2022-08-09T10:06:14.355Z,3.47
2022-08-09T10:08:54.857Z,4.07
2022-08-09T10:12:00.164Z,3.50
2022-08-09T10:14:27.677Z,3.70
2022-08-09T10:19:52.069Z,3.90
2022-08-09T10:22:37.383Z,3.42
2022-08-09T10:25:12.562Z,4.03
2022-08-09T10:27:57.308Z,3.58
2022-08-09T10:34:07.879Z,4.22
2022-08-09T10:36:09.462Z,4.35
2022-08-09T10:38:55.851Z,4.03
2022-08-09T10:41:28.246Z,3.65
2022-08-09T10:44:00.920Z,3.55
2022-08-09T10:47:01.030Z,3.17
2022-08-09T10:49:57.298Z,3.28
2022-08-09T10:53:24.260Z,3.28
2022-08-09T10:56:24.356Z,3.00
2022-08-09T10:58:55.467Z,3.42
2022-08-09T11:03:14.213Z,3.38
2022-08-09T11:04:31.734Z,3.28
2022-08-09T11:07:04.246Z,3.28
2022-08-09T11:09:38.933Z,3.20
2022-08-09T11:12:17.751Z,3.45
2022-08-09T11:14:57.651Z,3.17
2022-08-09T11:17:26.643Z,3.47
2022-08-09T11:20:22.295Z,3.25
2022-08-09T11:22:56.625Z,3.28
2022-08-09T11:25:44.853Z,2.97
2022-08-09T11:28:34.047Z,3.45
2022-08-09T11:31:49.178Z,4.88
2022-08-09T11:34:35.571Z,3.65
2022-08-09T11:37:07.619Z,3.67
2022-08-09T11:40:03.885Z,4.07
2022-08-09T11:42:43.632Z,3.70
2022-08-09T11:45:37.877Z,3.47
2022-08-09T11:48:31.830Z,3.30
2022-08-09T11:52:48.768Z,3.72
2022-08-09T11:54:27.500Z,3.35
2022-08-09T11:57:55.529Z,3.75
2022-08-09T12:00:30.810Z,3.38
2022-08-09T12:03:09.964Z,3.53
2022-08-09T12:05:51.211Z,3.83
2022-08-09T12:08:22.260Z,3.78
2022-08-09T12:10:55.671Z,3.67
2022-08-09T12:14:10.681Z,4.30
2022-08-09T12:16:38.179Z,3.85
2022-08-09T12:19:12.259Z,3.97
2022-08-09T12:21:51.668Z,3.88
2022-08-09T12:24:24.350Z,4.18
2022-08-09T12:28:58.818Z,3.83
2022-08-09T12:30:01.973Z,3.72
2022-08-09T12:32:45.149Z,3.60
2022-08-09T12:35:21.589Z,3.58
2022-08-09T12:37:53.611Z,3.67
2022-08-09T12:40:27.273Z,3.45
2022-08-09T12:42:56.470Z,5.20
2022-08-09T12:45:34.507Z,6.65
2022-08-09T12:48:19.834Z,5.78
2022-08-09T12:50:50.552Z,6.28
2022-08-09T12:53:33.430Z,5.45
2022-08-09T12:56:15.442Z,4.28
2022-08-09T12:59:11.782Z,3.83
2022-08-09T13:02:07.278Z,4.28
2022-08-09T13:04:40.372Z,4.32
2022-08-09T13:07:19.714Z,4.25
2022-08-09T13:10:05.195Z,4.70
2022-08-09T13:12:34.993Z,4.47
2022-08-09T13:15:09.980Z,4.95
2022-08-09T13:18:03.147Z,5.47
2022-08-09T13:21:04.536Z,4.93
2022-08-09T13:24:17.507Z,5.65
2022-08-09T13:26:36.937Z,5.95
2022-08-09T13:29:07.592Z,5.53
2022-08-09T13:32:16.744Z,5.65
2022-08-09T13:34:30.421Z,5.65
2022-08-09T13:37:05.432Z,4.97
2022-08-09T13:41:46.477Z,5.88
2022-08-09T13:42:28.810Z,4.80
2022-08-09T13:45:01.868Z,5.43
2022-08-09T13:47:49.041Z,5.07
2022-08-09T13:50:30.653Z,5.00
2022-08-09T13:52:59.932Z,5.30
2022-08-09T13:55:29.083Z,5.35
2022-08-09T13:57:59.564Z,5.15
2022-08-09T14:00:29.641Z,5.65
2022-08-09T14:03:17.142Z,5.22
2022-08-09T14:06:00.618Z,4.93
2022-08-09T14:08:32.299Z,4.88
2022-08-09T14:11:02.355Z,4.65
2022-08-09T14:14:22.623Z,4.97
2022-08-09T14:16:28.811Z,4.50
2022-08-09T14:18:58.428Z,4.78
2022-08-09T14:21:29.719Z,4.18
2022-08-09T14:24:05.461Z,4.53
2022-08-09T14:26:39.756Z,4.63
2022-08-09T14:29:25.848Z,4.05
2022-08-09T14:32:06.164Z,4.05
2022-08-09T14:34:41.402Z,3.75
2022-08-09T14:37:10.308Z,3.92
2022-08-09T14:39:47.964Z,4.38
2022-08-09T14:42:30.387Z,4.43
2022-08-09T14:46:40.083Z,3.70
2022-08-09T14:47:58.390Z,3.67
2022-08-09T14:50:32.785Z,3.72
2022-08-09T14:53:06.256Z,3.63
2022-08-09T14:55:42.096Z,3.60
2022-08-09T14:58:12.355Z,3.53
2022-08-09T15:00:42.514Z,3.30
2022-08-09T15:03:20.341Z,3.50
2022-08-09T15:05:54.821Z,3.72
2022-08-09T15:08:30.463Z,3.60
2022-08-09T15:11:01.304Z,3.85
2022-08-09T15:13:56.531Z,3.53
2022-08-09T15:16:23.898Z,3.60
2022-08-09T15:19:05.878Z,3.63
2022-08-09T15:21:58.781Z,3.83
2022-08-09T15:24:30.810Z,3.60
2022-08-09T15:26:59.440Z,3.40
2022-08-09T15:30:48.265Z,4.00
2022-08-09T15:32:38.971Z,3.58
2022-08-09T15:35:18.239Z,3.42
2022-08-09T15:38:10.932Z,3.60
2022-08-09T15:40:43.394Z,3.50
2022-08-09T15:43:14.341Z,3.88
2022-08-09T15:46:07.242Z,3.95
2022-08-09T15:48:32.520Z,4.03
2022-08-09T15:51:01.753Z,3.80
2022-08-09T15:54:05.792Z,3.60
2022-08-09T15:56:21.472Z,4.20
2022-08-09T15:59:03.266Z,3.72
2022-08-09T16:01:35.441Z,3.80
2022-08-09T16:04:04.737Z,3.95
2022-08-09T16:06:37.692Z,4.00
2022-08-09T16:09:07.117Z,3.78
2022-08-09T16:11:35.325Z,5.00
2022-08-09T16:14:07.995Z,4.32
2022-08-09T16:16:39.017Z,3.92
2022-08-09T16:19:13.414Z,5.18
2022-08-09T16:21:48.770Z,4.93
2022-08-09T16:24:33.251Z,4.57
2022-08-09T16:27:05.198Z,5.25
2022-08-09T16:29:37.411Z,4.78
2022-08-09T16:32:19.795Z,5.00
2022-08-09T16:34:58.451Z,4.78
2022-08-09T16:37:53.193Z,4.97
2022-08-09T16:40:20.406Z,5.22
2022-08-09T16:42:50.129Z,5.32
2022-08-09T16:48:38.162Z,5.00
2022-08-09T16:50:39.987Z,5.32
2022-08-09T16:53:18.397Z,5.00
2022-08-09T16:56:00.558Z,5.43
2022-08-09T16:58:35.878Z,5.28
2022-08-09T17:01:06.127Z,5.07
2022-08-09T17:03:36.603Z,4.97
2022-08-09T17:09:00.148Z,5.32
2022-08-09T17:11:41.759Z,5.88
2022-08-09T17:14:26.627Z,5.88
2022-08-09T17:17:01.353Z,5.95
2022-08-09T17:19:47.542Z,5.30
2022-08-09T17:22:31.103Z,5.05
2022-08-09T17:25:04.835Z,5.35
2022-08-09T17:27:49.435Z,5.07
2022-08-09T17:30:29.207Z,5.20
2022-08-09T17:33:05.567Z,5.10
2022-08-09T17:35:50.785Z,5.30
2022-08-09T17:38:32.553Z,5.38
2022-08-09T17:41:06.686Z,5.25
2022-08-09T17:43:37.218Z,5.60
2022-08-09T17:46:08.782Z,5.07
2022-08-09T17:48:46.607Z,5.80
2022-08-09T17:51:22.328Z,5.10
2022-08-09T17:53:55.481Z,5.13
2022-08-09T17:56:29.089Z,4.85
2022-08-09T17:59:03.068Z,4.85
2022-08-09T18:01:58.018Z,4.97
2022-08-09T18:04:21.558Z,5.35
2022-08-09T18:06:54.890Z,5.18
2022-08-09T18:09:40.466Z,4.82
2022-08-09T18:12:19.549Z,4.70
2022-08-09T18:14:55.185Z,5.13
2022-08-09T18:17:27.046Z,5.03
2022-08-09T18:20:55.246Z,4.85
2022-08-09T18:23:07.271Z,5.47
2022-08-09T18:25:51.105Z,6.28
2022-08-09T18:30:42.911Z,6.20
2022-08-09T18:31:24.730Z,5.38
2022-08-09T18:34:05.465Z,6.15
2022-08-09T18:36:36.287Z,5.97
2022-08-09T18:39:15.967Z,5.65
2022-08-09T18:41:53.197Z,6.00
2022-08-09T18:44:25.421Z,5.85
2022-08-09T18:47:07.337Z,5.60
2022-08-09T18:49:46.264Z,5.57
2022-08-09T18:52:18.715Z,6.13
2022-08-09T18:54:54.800Z,5.70
2022-08-09T18:57:23.964Z,5.53
2022-08-09T19:00:11.335Z,5.85
2022-08-09T19:02:45.338Z,5.47
2022-08-09T19:05:28.314Z,5.85
2022-08-09T19:08:10.463Z,5.70
2022-08-09T19:10:40.724Z,6.00
2022-08-09T19:13:22.936Z,6.00
2022-08-09T19:16:00.512Z,5.43
2022-08-09T19:18:33.886Z,5.70
2022-08-09T19:21:10.593Z,6.50
2022-08-09T19:24:32.673Z,6.28
2022-08-09T19:26:34.663Z,6.50
2022-08-09T19:29:15.364Z,6.20
2022-08-09T19:31:51.211Z,6.53
2022-08-09T19:34:23.052Z,6.40
2022-08-09T19:36:58.035Z,7.05
2022-08-09T19:39:42.851Z,6.82
2022-08-09T19:42:14.436Z,6.63
2022-08-09T19:44:43.937Z,7.20
2022-08-09T19:47:22.648Z,8.10
2022-08-09T19:50:09.025Z,7.10
2022-08-09T19:52:51.840Z,7.47
2022-08-09T19:55:30.625Z,7.20
2022-08-09T19:58:16.429Z,7.13
2022-08-09T20:00:46.870Z,7.00
2022-08-09T20:04:17.067Z,7.57
2022-08-09T20:06:31.283Z,8.07
2022-08-09T20:09:00.168Z,9.00
2022-08-09T20:11:43.275Z,7.53
2022-08-09T20:14:18.003Z,7.90
2022-08-09T20:16:53.545Z,7.00
2022-08-09T20:19:48.704Z,8.10
2022-08-09T20:22:14.485Z,7.80
2022-08-09T20:24:53.429Z,7.75
2022-08-09T20:27:23.357Z,8.50
2022-08-09T20:29:51.704Z,8.18
2022-08-09T20:32:30.483Z,8.35
2022-08-09T20:35:08.961Z,8.30
2022-08-09T20:38:19.096Z,8.68
2022-08-09T20:40:28.686Z,9.07
2022-08-09T20:43:11.907Z,9.35
2022-08-09T20:45:59.897Z,9.15
2022-08-09T20:48:31.535Z,8.27
2022-08-09T20:51:01.373Z,9.25
2022-08-09T20:53:36.199Z,9.00
2022-08-09T20:56:20.698Z,8.85
2022-08-09T20:58:54.693Z,9.23
2022-08-09T21:01:35.094Z,8.52
2022-08-09T21:05:51.132Z,9.00
2022-08-09T21:07:12.748Z,8.68
2022-08-09T21:09:55.276Z,8.20
2022-08-09T21:12:32.232Z,9.05
2022-08-09T21:15:03.058Z,8.75
2022-08-09T21:18:23.758Z,8.80
2022-08-09T21:20:25.766Z,8.77
2022-08-09T21:22:55.133Z,8.60
2022-08-09T21:25:44.207Z,9.10
2022-08-09T21:28:33.730Z,8.77
2022-08-09T21:31:22.443Z,8.65
2022-08-09T21:33:53.246Z,9.30
2022-08-09T21:36:28.788Z,8.80
2022-08-09T21:38:59.514Z,8.55
2022-08-09T21:42:00.305Z,8.73
2022-08-09T21:44:32.737Z,8.65
2022-08-09T21:47:09.297Z,8.63
2022-08-09T21:49:42.596Z,8.52
2022-08-09T21:52:17.530Z,9.50
2022-08-09T21:54:59.422Z,9.00
2022-08-09T21:57:58.601Z,8.77
2022-08-09T22:00:31.857Z,8.68
2022-08-09T22:03:19.666Z,8.13
2022-08-09T22:05:58.023Z,9.18
2022-08-09T22:08:26.474Z,9.10
2022-08-09T22:11:48.809Z,8.38
2022-08-09T22:13:45.221Z,9.85
2022-08-09T22:16:13.610Z,9.23
2022-08-09T22:18:53.157Z,8.50
2022-08-09T22:21:44.635Z,8.77
2022-08-09T22:24:17.126Z,8.90
2022-08-09T22:26:51.187Z,8.77
2022-08-09T22:29:28.400Z,9.10
2022-08-09T22:32:03.295Z,8.98
2022-08-09T22:34:31.582Z,9.57
2022-08-09T22:37:00.679Z,9.40
2022-08-09T22:42:22.382Z,9.93
2022-08-09T22:48:05.121Z,10.30
2022-08-09T22:48:14.136Z,10.10
2022-08-09T22:50:33.470Z,10.57
2022-08-09T22:53:03.588Z,10.50
2022-08-09T22:56:05.983Z,9.93
2022-08-09T22:58:32.841Z,10.82
2022-08-09T23:01:05.399Z,10.63
2022-08-09T23:04:04.777Z,10.43
2022-08-09T23:06:34.697Z,11.25
2022-08-09T23:09:07.652Z,11.00
2022-08-09T23:11:36.333Z,11.77
2022-08-09T23:14:09.760Z,12.82
2022-08-09T23:16:39.057Z,12.60
2022-08-09T23:19:07.571Z,12.13
2022-08-09T23:21:36.310Z,12.02
2022-08-09T23:24:07.715Z,11.80
2022-08-09T23:26:37.576Z,11.18
2022-08-09T23:29:14.243Z,11.23
2022-08-09T23:31:43.028Z,10.63
2022-08-09T23:34:11.416Z,9.77
2022-08-09T23:36:39.879Z,9.20
2022-08-09T23:39:08.646Z,9.40
2022-08-09T23:41:37.329Z,9.25
2022-08-09T23:44:05.975Z,10.30
2022-08-09T23:46:34.931Z,9.70
2022-08-09T23:49:04.017Z,9.68
2022-08-09T23:51:32.522Z,10.18
2022-08-09T23:54:02.428Z,10.93
2022-08-09T23:56:40.005Z,10.50
2022-08-09T23:59:22.294Z,10.00
